ウシュアイア空港の過去48時間の天気

ウシュアイア空港 (Ushuaia Aerodrome)

現在時刻: 9/28 07:02 -03 (9/28 10:02 UTC) 以下の時間は現地時間です。

過去48時間のMETAR気象情報
時間 風向 風速(m/s) 視程 気温(℃) 湿度(%) 気圧(hPa) 天気現象
28 06:00 南南東 5 10km以上 2 93 992 弱い霧雨 弱い雪
28 05:00 南東 9 10km以上 2 87 991 周辺でしゅう雨
28 04:00 南西 10 10km以上 4 75 990 周辺でしゅう雨
28 03:00 南西 12 10km以上 4 81 987 周辺でしゅう雨
28 02:00 南西 12 10km以上 5 87 986 弱い霧雨
28 01:00 南西 9 10km以上 5 87 985
28 00:00 南西 7 10km以上 5 75 985
27 23:00 南西 6 10km以上 6 70 986
27 22:00 南西 6 10km以上 6 70 987
27 21:00 南西 7 10km以上 7 57 988
27 20:00 南西 4 10km以上 8 49 988
27 19:00 2 10km以上 8 49 989
27 18:00 5 10km以上 8 49 990
27 17:00 7 10km以上 8 57 992
27 16:00 8 10km以上 7 57 993 周辺でしゅう雨
27 15:00 8 10km以上 7 57 995 周辺でしゅう雨
27 14:00 7 10km以上 6 70 997 周辺でしゅう雨
27 13:00 北西 7 10km以上 6 70 999 周辺でしゅう雨
27 12:00 北西 7 10km以上 5 65 1000
27 11:00 静穏 0 10km以上 4 70 1002
27 10:00 静穏 0 10km以上 3 75 1003
27 09:00 3 10km以上 2 81 1004
27 08:00 静穏 0 10km以上 1 80 1005
27 07:00 2 10km以上 1 80 1006
27 06:00 北北西 2 10km以上 1 75 1006
27 05:00 西南西 4 10km以上 1 80 1006
27 04:00 西 2 10km以上 2 75 1006
27 03:00 西南西 5 10km以上 2 75 1006
27 02:00 西南西 2 10km以上 2 75 1006
27 01:00 南西 4 10km以上 2 81 1006
27 00:00 南西 4 10km以上 2 87 1005 周辺でしゅう雨 雪
26 23:45 南西 6 10km以上 2 87 1005 周辺でしゅう雨 雪
26 23:00 南西 8 5000m 2 87 1005 霧雨 雪
26 22:30 南西 10 5000m 2 87 1005 霧雨 雪
26 22:00 南西 4 10km以上 2 87 1005 周辺でしゅう雨
26 21:00 南西 7 10km以上 2 87 1004 周辺でしゅう雨
26 20:35 南西 9 10km以上 3 75 1003
26 20:00 南西 9 7000m 3 75 1003 霧雨
26 19:00 南西 13 10km以上 4 70 1002 周辺でしゅう雨
26 18:00 南西 9 10km以上 5 61 1001
26 17:00 南西 11 10km以上 5 56 1000
SAWH 280900Z 16010KT 9999 -DZSN FEW010 BKN035 BKN060 02/01 Q0992
SAWH 280800Z 14017KT 9999 VCSH FEW010 BKN035 BKN060 02/00 Q0991
SAWH 280700Z 23019KT 9999 VCSH SCT030 BKN070 04/M00 Q0990
SAWH 280600Z 23024KT 9999 VCSH SCT030 BKN070 04/01 Q0987
SAWH 280500Z 23024KT 9999 -DZ SCT040 BKN080 05/03 Q0986
SAWH 280400Z 23018KT 9999 SCT040 SCT080 05/03 Q0985
SAWH 280300Z 23014KT 9999 SCT040 05/01 Q0985
SAWH 280200Z 23012KT 9999 SCT040 06/01 Q0986
SAWH 280100Z 23012KT 9999 SCT040 06/01 Q0987
SAWH 280000Z 23014KT 9999 SCT045 SCT080 07/M01 Q0988
SAWH 272300Z 23007KT 9999 SCT045 BKN080 BKN200 08/M02 Q0988
SAWH 272200Z 36004KT 9999 SCT045 BKN200 08/M02 Q0989
SAWH 272100Z 36010KT 9999 SCT045 08/M02 Q0990
SAWH 272000Z 36014KT 9999 BKN045 BKN100 08/M00 Q0992
SAWH 271900Z 36015KT 9999 VCSH SCT035 BKN040 BKN080 07/M01 Q0993
SAWH 271800Z 36015KT 9999 VCSH SCT035 BKN040 BKN080 07/M01 Q0995
SAWH 271700Z 36014KT 9999 VCSH SCT035 BKN040 BKN080 06/01 Q0997
SAWH 271600Z 32013G23KT 9999 VCSH SCT035 BKN040 OVC080 06/01 Q0999
SAWH 271500Z 32014KT 9999 SCT040 BKN100 05/M01 Q1000
SAWH 271400Z 00000KT 9999 BKN040 BKN100 04/M01 Q1002
SAWH 271300Z 00000KT 9999 SCT040 BKN100 03/M01 Q1003
SAWH 271200Z 09006KT 9999 SCT040 SCT100 02/M01 Q1004
SAWH 271100Z 00000KT CAVOK 01/M02 Q1005
SAWH 271000Z 36004KT CAVOK 01/M02 Q1006
SAWH 270900Z 34004KT 9999 FEW040 01/M03 Q1006
SAWH 270800Z 25008KT 9999 FEW040 01/M02 Q1006
SAWH 270700Z 27004KT 9999 FEW040 02/M02 Q1006
SAWH 270600Z 25009KT 9999 SCT048 SCT080 02/M02 Q1006
SAWH 270500Z 25003KT 9999 FEW048 BKN080 02/M02 Q1006
SAWH 270400Z 23008KT 9999 FEW040 SCT080 02/M01 Q1006
SAWH 270300Z 23008KT 9999 VCSH FEW020 BKN035 02/M00 Q1005 REDZSN
SAWH 270245Z 23012KT 9999 VCSH FEW020 SCT035 02/M00 Q1005 REDZSN
SAWH 270200Z 23016KT 5000 DZSN BKN012 BKN035 02/M00 Q1005
SAWH 270130Z 23020G30KT 5000 DZSN BKN012 BKN030 02/00 Q1005
SAWH 270100Z 23008KT 9999 VCSH FEW020 SCT035 02/00 Q1005
SAWH 270000Z 23014KT 9999 VCSH FEW020 SCT035 02/M00 Q1004 REDZ
SAWH 262335Z 23018KT 9999 FEW020 SCT035 03/M01 Q1003 REDZ
SAWH 262300Z 23018KT 7000 DZ BKN015 BKN035 03/M01 Q1003
SAWH 262200Z 23025KT 9999 VCSH SCT020 SCT035 04/M01 Q1002
SAWH 262100Z 23017KT 9999 SCT040 SCT080 05/M02 Q1001
SAWH 262000Z 23021KT 9999 SCT040 SCT080 05/M03 Q1000